createdAt,value
2022-11-25T00:01:17.979Z,13.33
2022-11-25T00:03:46.152Z,13.22
2022-11-25T00:06:15.375Z,13.32
2022-11-25T00:08:45.890Z,13.47
2022-11-25T00:11:13.294Z,13.40
2022-11-25T00:13:41.311Z,13.65
2022-11-25T00:16:10.882Z,13.26
2022-11-25T00:18:38.428Z,13.67
2022-11-25T00:21:12.503Z,13.53
2022-11-25T00:23:39.743Z,13.77
2022-11-25T00:26:16.355Z,13.90
2022-11-25T00:28:45.339Z,13.72
2022-11-25T00:31:26.907Z,13.70
2022-11-25T00:33:53.982Z,13.55
2022-11-25T00:36:23.157Z,13.80
2022-11-25T00:38:58.554Z,13.40
2022-11-25T00:41:45.015Z,13.58
2022-11-25T00:44:35.446Z,13.76
2022-11-25T00:47:03.770Z,13.97
2022-11-25T00:49:30.956Z,13.99
2022-11-25T00:51:57.764Z,13.32
2022-11-25T00:54:24.599Z,13.31
2022-11-25T00:56:51.825Z,13.49
2022-11-25T00:59:19.482Z,13.35
2022-11-25T01:01:46.919Z,13.37
2022-11-25T01:04:13.675Z,13.23
2022-11-25T01:06:40.916Z,13.77
2022-11-25T01:09:08.608Z,13.45
2022-11-25T01:11:35.505Z,13.60
2022-11-25T01:14:02.672Z,13.73
2022-11-25T01:16:30.002Z,14.04
2022-11-25T01:19:01.058Z,13.50
2022-11-25T01:21:30.277Z,13.27
2022-11-25T01:24:07.142Z,12.82
2022-11-25T01:26:35.465Z,12.83
2022-11-25T01:29:04.820Z,13.50
2022-11-25T01:31:36.022Z,12.40
2022-11-25T01:34:09.158Z,12.92
2022-11-25T01:36:36.075Z,12.60
2022-11-25T01:39:04.143Z,12.35
2022-11-25T01:41:32.541Z,13.21
2022-11-25T01:44:08.686Z,12.90
2022-11-25T01:46:57.390Z,12.84
2022-11-25T01:49:27.143Z,13.07
2022-11-25T01:51:58.698Z,13.23
2022-11-25T01:54:27.828Z,12.80
2022-11-25T01:56:58.805Z,12.97
2022-11-25T01:59:26.698Z,12.21
2022-11-25T02:01:53.897Z,12.44
2022-11-25T02:04:23.811Z,12.79
2022-11-25T02:06:58.234Z,12.86
2022-11-25T02:09:25.235Z,13.23
2022-11-25T02:11:52.475Z,13.16
2022-11-25T02:14:20.604Z,13.07
2022-11-25T02:16:47.643Z,12.88
2022-11-25T02:19:23.958Z,12.26
2022-11-25T02:21:55.325Z,12.46
2022-11-25T02:24:46.369Z,12.36
2022-11-25T02:27:14.203Z,12.43
2022-11-25T02:29:43.507Z,12.35
2022-11-25T02:32:10.650Z,12.27
2022-11-25T02:34:47.823Z,12.19
2022-11-25T02:37:16.346Z,12.40
2022-11-25T02:39:43.715Z,12.61
2022-11-25T02:42:12.701Z,12.71
2022-11-25T02:44:39.417Z,12.52
2022-11-25T02:47:06.302Z,12.68
2022-11-25T02:49:33.074Z,12.43
2022-11-25T02:51:59.909Z,12.44
2022-11-25T02:54:28.641Z,12.35
2022-11-25T02:56:55.521Z,12.53
2022-11-25T02:59:22.325Z,12.42
2022-11-25T03:01:49.327Z,12.65
2022-11-25T03:04:16.135Z,12.92
2022-11-25T03:06:44.342Z,12.93
2022-11-25T03:09:11.250Z,12.90
2022-11-25T03:11:56.736Z,12.67
2022-11-25T03:14:23.685Z,12.62
2022-11-25T03:16:50.512Z,12.83
2022-11-25T03:19:17.958Z,12.83
2022-11-25T03:21:44.640Z,12.40
2022-11-25T03:24:11.448Z,12.63
2022-11-25T03:26:38.473Z,12.80
2022-11-25T03:29:05.218Z,12.81
2022-11-25T03:31:34.135Z,13.07
2022-11-25T03:34:01.114Z,12.96
2022-11-25T03:36:28.011Z,13.13
2022-11-25T03:38:54.805Z,13.02
2022-11-25T03:41:21.683Z,13.16
2022-11-25T03:43:49.177Z,13.24
2022-11-25T03:46:16.997Z,12.88
2022-11-25T03:48:44.682Z,12.77
2022-11-25T03:51:11.724Z,13.04
2022-11-25T03:53:38.457Z,13.00
2022-11-25T03:56:07.961Z,12.93
2022-11-25T03:58:34.960Z,13.22
2022-11-25T04:01:03.956Z,13.23
2022-11-25T04:03:31.081Z,13.12
2022-11-25T04:05:57.738Z,13.07
2022-11-25T04:08:24.808Z,13.21
2022-11-25T04:10:51.661Z,13.00
2022-11-25T04:13:22.422Z,12.79
2022-11-25T04:15:51.265Z,12.77
2022-11-25T04:18:19.529Z,12.70
2022-11-25T04:20:49.382Z,12.73
2022-11-25T04:23:16.584Z,12.56
2022-11-25T04:25:52.005Z,12.62
2022-11-25T04:28:31.243Z,12.73
2022-11-25T04:30:58.355Z,12.21
2022-11-25T04:33:25.274Z,12.18
2022-11-25T04:35:52.918Z,12.47
2022-11-25T04:38:20.481Z,12.67
2022-11-25T04:40:47.616Z,12.47
2022-11-25T04:43:18.074Z,12.30
2022-11-25T04:48:37.019Z,12.20
2022-11-25T04:51:04.311Z,12.20
2022-11-25T04:53:31.400Z,12.15
2022-11-25T04:55:58.265Z,12.33
2022-11-25T04:58:43.515Z,12.23
2022-11-25T05:01:10.642Z,12.00
2022-11-25T05:03:46.546Z,11.86
2022-11-25T05:06:16.103Z,11.87
2022-11-25T05:08:42.869Z,11.94
2022-11-25T05:11:10.361Z,12.08
2022-11-25T05:13:38.014Z,11.93
2022-11-25T05:16:05.410Z,11.79
2022-11-25T05:18:32.228Z,11.95
2022-11-25T05:21:03.001Z,11.99
2022-11-25T05:23:32.165Z,12.10
2022-11-25T05:26:01.092Z,11.89
2022-11-25T05:28:37.813Z,11.74
2022-11-25T05:31:04.727Z,11.76
2022-11-25T05:33:32.139Z,11.87
2022-11-25T05:36:01.225Z,11.79
2022-11-25T05:38:34.830Z,11.54
2022-11-25T05:41:04.356Z,11.71
2022-11-25T05:43:31.167Z,11.61
2022-11-25T05:45:59.572Z,11.82
2022-11-25T05:48:27.838Z,11.58
2022-11-25T05:50:54.663Z,11.40
2022-11-25T05:53:23.449Z,11.23
2022-11-25T05:55:57.179Z,11.75
2022-11-25T05:58:59.737Z,11.78
2022-11-25T06:01:34.682Z,11.40
2022-11-25T06:04:02.337Z,11.30
2022-11-25T06:06:29.828Z,11.53
2022-11-25T06:08:56.651Z,10.87
2022-11-25T06:11:25.801Z,11.04
2022-11-25T06:13:52.588Z,11.32
2022-11-25T06:16:22.502Z,11.37
2022-11-25T06:18:56.422Z,11.40
2022-11-25T06:21:23.396Z,11.62
2022-11-25T06:23:50.685Z,11.98
2022-11-25T06:26:20.711Z,11.67
2022-11-25T06:28:47.708Z,11.97
2022-11-25T06:31:17.060Z,11.82
2022-11-25T06:33:54.440Z,11.98
2022-11-25T06:36:22.533Z,11.88
2022-11-25T06:38:51.787Z,11.79
2022-11-25T06:41:19.210Z,11.76
2022-11-25T06:43:45.987Z,11.98
2022-11-25T06:46:18.410Z,11.80
2022-11-25T06:48:50.052Z,11.83
2022-11-25T06:51:17.244Z,11.66
2022-11-25T06:53:44.303Z,11.93
2022-11-25T06:56:16.315Z,11.71
2022-11-25T06:58:44.590Z,11.72
2022-11-25T07:01:18.973Z,11.43
2022-11-25T07:03:47.450Z,11.80
2022-11-25T07:06:15.282Z,11.67
2022-11-25T07:08:42.787Z,11.51
2022-11-25T07:11:32.649Z,11.56
2022-11-25T07:14:04.459Z,11.33
2022-11-25T07:16:32.436Z,11.32
2022-11-25T07:19:02.079Z,11.45
2022-11-25T07:21:32.986Z,11.10
2022-11-25T07:24:02.413Z,11.37
2022-11-25T07:26:32.109Z,11.10
2022-11-25T07:29:00.909Z,10.97
2022-11-25T07:31:33.023Z,11.63
2022-11-25T07:34:06.234Z,11.70
2022-11-25T07:36:34.612Z,11.48
2022-11-25T07:39:04.615Z,11.47
2022-11-25T07:41:31.616Z,11.54
2022-11-25T07:44:01.419Z,11.55
2022-11-25T07:46:35.079Z,11.76
2022-11-25T07:49:04.794Z,11.64
2022-11-25T07:51:33.094Z,11.62
2022-11-25T07:54:01.134Z,11.27
2022-11-25T07:56:29.158Z,11.32
2022-11-25T07:58:56.899Z,11.62
2022-11-25T08:01:24.032Z,11.66
2022-11-25T08:03:51.471Z,11.56
2022-11-25T08:06:20.610Z,11.72
2022-11-25T08:08:47.544Z,11.61
2022-11-25T08:11:20.187Z,11.60
2022-11-25T08:13:47.243Z,11.77
2022-11-25T08:16:16.256Z,11.62
2022-11-25T08:18:43.258Z,11.47
2022-11-25T08:21:11.850Z,11.55
2022-11-25T08:23:39.587Z,11.60
2022-11-25T08:26:15.097Z,11.50
2022-11-25T08:28:42.622Z,11.11
2022-11-25T08:31:15.844Z,11.87
2022-11-25T08:33:43.375Z,11.58
2022-11-25T08:36:11.322Z,11.74
2022-11-25T08:38:39.062Z,12.03
2022-11-25T08:41:11.654Z,11.80
2022-11-25T08:43:39.039Z,11.63
2022-11-25T08:46:14.625Z,11.46
2022-11-25T08:48:42.121Z,11.78
2022-11-25T08:51:12.087Z,11.83
2022-11-25T08:53:39.453Z,12.04
2022-11-25T08:56:06.893Z,11.80
2022-11-25T08:58:34.464Z,12.18
2022-11-25T09:01:01.875Z,11.89
2022-11-25T09:03:28.849Z,12.11
2022-11-25T09:05:55.819Z,12.29
2022-11-25T09:08:22.657Z,12.63
2022-11-25T09:10:49.393Z,12.60
2022-11-25T09:13:16.846Z,12.64
2022-11-25T09:15:43.633Z,13.04
2022-11-25T09:18:11.055Z,12.88
2022-11-25T09:20:39.569Z,12.66
2022-11-25T09:23:07.745Z,12.71
2022-11-25T09:25:35.356Z,12.33
2022-11-25T09:28:02.666Z,12.40
2022-11-25T09:30:29.642Z,12.28
2022-11-25T09:32:56.697Z,12.36
2022-11-25T09:35:24.563Z,11.99
2022-11-25T09:37:52.897Z,12.17
2022-11-25T09:40:35.579Z,12.41
2022-11-25T09:43:32.507Z,12.38
2022-11-25T09:46:46.267Z,12.49
2022-11-25T09:49:13.065Z,12.12
2022-11-25T09:51:45.774Z,12.89
2022-11-25T09:54:20.168Z,13.22
2022-11-25T09:57:11.671Z,12.96
2022-11-25T09:59:58.694Z,12.54
2022-11-25T10:02:39.385Z,12.68
2022-11-25T10:05:09.027Z,12.28
2022-11-25T10:07:43.669Z,12.93
2022-11-25T10:10:27.990Z,12.88
2022-11-25T10:12:57.280Z,12.56
2022-11-25T10:15:28.152Z,13.13
2022-11-25T10:18:00.852Z,13.08
2022-11-25T10:20:34.567Z,12.66
2022-11-25T10:23:05.483Z,12.64
2022-11-25T10:25:37.721Z,13.45
2022-11-25T10:28:05.457Z,13.28
2022-11-25T10:30:44.239Z,13.12
2022-11-25T10:33:21.051Z,12.99
2022-11-25T10:36:22.191Z,13.48
2022-11-25T10:39:16.720Z,13.77
2022-11-25T10:41:48.978Z,13.24
2022-11-25T10:44:25.048Z,13.40
2022-11-25T10:47:15.443Z,13.89
2022-11-25T10:49:54.577Z,13.82
2022-11-25T10:52:27.034Z,13.44
2022-11-25T10:55:08.883Z,13.70
2022-11-25T10:57:35.974Z,13.51
2022-11-25T11:00:06.944Z,13.78
2022-11-25T11:02:40.765Z,13.87
2022-11-25T11:05:10.671Z,13.81
2022-11-25T11:07:40.797Z,13.93
2022-11-25T11:10:19.340Z,14.23
2022-11-25T11:13:00.766Z,14.15
2022-11-25T11:15:41.694Z,13.93
2022-11-25T11:18:47.683Z,13.87
2022-11-25T11:21:34.023Z,13.86
2022-11-25T11:24:02.249Z,13.90
2022-11-25T11:26:36.323Z,13.29
2022-11-25T11:29:12.661Z,13.67
2022-11-25T11:31:45.885Z,13.64
2022-11-25T11:34:23.023Z,13.57
2022-11-25T11:36:57.388Z,13.67
2022-11-25T11:40:00.104Z,13.43
2022-11-25T11:42:46.372Z,13.77
2022-11-25T11:45:41.723Z,13.54
2022-11-25T11:48:19.231Z,13.72
2022-11-25T11:50:48.120Z,13.71
2022-11-25T11:53:35.347Z,13.98
2022-11-25T11:56:34.384Z,14.57
2022-11-25T11:59:24.018Z,13.90
2022-11-25T12:02:13.253Z,14.13
2022-11-25T12:04:54.394Z,13.80
2022-11-25T12:07:35.088Z,14.15
2022-11-25T12:10:11.210Z,14.62
2022-11-25T12:12:48.596Z,14.45
2022-11-25T12:15:32.044Z,14.79
2022-11-25T12:18:03.283Z,14.33
2022-11-25T12:20:39.056Z,13.98
2022-11-25T12:23:27.118Z,14.18
2022-11-25T12:25:59.115Z,13.90
2022-11-25T12:28:43.787Z,13.95
2022-11-25T12:31:20.437Z,13.69
2022-11-25T12:34:04.631Z,14.48
2022-11-25T12:36:35.979Z,14.30
2022-11-25T12:39:23.457Z,13.91
2022-11-25T12:42:00.316Z,13.69
2022-11-25T12:44:54.915Z,13.82
2022-11-25T12:47:21.916Z,14.13
2022-11-25T12:49:50.314Z,13.89
2022-11-25T12:52:35.377Z,13.75
2022-11-25T12:55:21.370Z,13.71
2022-11-25T12:58:13.108Z,13.68
2022-11-25T13:00:52.029Z,13.61
2022-11-25T13:03:48.268Z,13.39
2022-11-25T13:06:56.676Z,13.52
2022-11-25T13:09:54.438Z,14.19
2022-11-25T13:12:27.976Z,14.46
2022-11-25T13:15:12.728Z,13.99
2022-11-25T13:17:41.447Z,14.34
2022-11-25T13:20:27.131Z,13.85
2022-11-25T13:23:13.592Z,13.88
2022-11-25T13:25:41.735Z,13.68
2022-11-25T13:28:27.512Z,13.78
2022-11-25T13:30:54.536Z,14.44
2022-11-25T13:33:24.349Z,14.34
2022-11-25T13:35:55.210Z,14.22
2022-11-25T13:38:31.087Z,14.07
2022-11-25T13:41:02.310Z,14.16
2022-11-25T13:43:29.360Z,13.98
2022-11-25T13:45:56.603Z,13.97
2022-11-25T13:48:31.395Z,13.41
2022-11-25T13:51:23.533Z,13.71
2022-11-25T13:54:15.636Z,13.78
2022-11-25T13:56:42.390Z,14.17
2022-11-25T13:59:12.232Z,14.23
2022-11-25T14:01:41.885Z,13.64
2022-11-25T14:04:11.267Z,14.22
2022-11-25T14:07:01.546Z,13.51
2022-11-25T14:09:38.285Z,14.28
2022-11-25T14:12:28.064Z,13.71
2022-11-25T14:15:03.896Z,13.89
2022-11-25T14:17:56.858Z,13.91
2022-11-25T14:20:38.547Z,13.71
2022-11-25T14:23:37.283Z,13.69
2022-11-25T14:26:21.092Z,13.98
2022-11-25T14:29:00.669Z,14.05
2022-11-25T14:31:34.414Z,14.19
2022-11-25T14:34:05.549Z,14.15
2022-11-25T14:36:36.605Z,14.23
2022-11-25T14:39:06.500Z,14.38
2022-11-25T14:41:38.986Z,14.37
2022-11-25T14:44:11.729Z,15.01
2022-11-25T14:46:54.446Z,14.83
2022-11-25T14:49:46.659Z,14.36
2022-11-25T14:52:11.346Z,14.09
2022-11-25T14:54:42.609Z,14.27
2022-11-25T14:57:09.597Z,14.64
2022-11-25T14:59:42.116Z,14.87
2022-11-25T15:02:30.299Z,14.80
2022-11-25T15:05:17.258Z,14.38
2022-11-25T15:07:56.492Z,14.88
2022-11-25T15:10:29.398Z,14.83
2022-11-25T15:12:56.227Z,14.94
2022-11-25T15:15:22.865Z,14.50
2022-11-25T15:17:49.509Z,13.98
2022-11-25T15:20:17.761Z,13.76
2022-11-25T15:22:49.700Z,14.63
2022-11-25T15:25:16.740Z,14.30
2022-11-25T15:27:49.206Z,14.23
2022-11-25T15:30:28.184Z,14.01
2022-11-25T15:32:55.311Z,13.75
2022-11-25T15:35:27.540Z,13.67
2022-11-25T15:37:54.456Z,14.15
2022-11-25T15:40:43.976Z,13.72
2022-11-25T15:43:25.169Z,14.04
2022-11-25T15:45:54.845Z,13.85
2022-11-25T15:48:28.049Z,13.67
2022-11-25T15:51:16.572Z,13.36
2022-11-25T15:53:44.619Z,13.40
2022-11-25T15:56:14.582Z,13.43
2022-11-25T15:58:43.020Z,13.32
2022-11-25T16:01:21.844Z,13.41
2022-11-25T16:03:50.071Z,13.15
2022-11-25T16:06:30.409Z,13.22
2022-11-25T16:08:57.074Z,13.26
2022-11-25T16:11:25.740Z,12.83
2022-11-25T16:13:53.549Z,13.08
2022-11-25T16:16:25.840Z,12.83
2022-11-25T16:19:01.979Z,12.89
2022-11-25T16:21:38.163Z,12.87
2022-11-25T16:24:05.295Z,13.06
2022-11-25T16:26:57.627Z,12.85
2022-11-25T16:29:31.956Z,12.77
2022-11-25T16:31:59.874Z,12.86
2022-11-25T16:34:27.609Z,12.50
2022-11-25T16:36:54.471Z,12.99
2022-11-25T16:39:21.228Z,12.50
2022-11-25T16:41:58.713Z,12.29
2022-11-25T16:44:26.589Z,12.51
2022-11-25T16:46:53.939Z,12.34
2022-11-25T16:49:22.716Z,12.86
2022-11-25T16:51:53.387Z,13.09
2022-11-25T16:54:21.303Z,12.81
2022-11-25T16:56:53.474Z,12.60
2022-11-25T16:59:31.983Z,12.62
2022-11-25T17:02:00.129Z,12.69
2022-11-25T17:04:27.898Z,12.77
2022-11-25T17:07:30.987Z,12.81
2022-11-25T17:09:45.117Z,12.55
2022-11-25T17:12:16.846Z,12.43
2022-11-25T17:14:44.558Z,12.98
2022-11-25T17:17:14.311Z,12.94
2022-11-25T17:19:41.990Z,12.93
2022-11-25T17:22:18.846Z,12.94
2022-11-25T17:24:45.889Z,12.64
2022-11-25T17:27:23.359Z,12.60
2022-11-25T17:29:50.971Z,12.42
2022-11-25T17:32:18.109Z,12.68
2022-11-25T17:34:45.407Z,12.95
2022-11-25T17:37:19.437Z,12.91
2022-11-25T17:39:46.462Z,12.81
2022-11-25T17:42:15.726Z,12.65
2022-11-25T17:44:43.702Z,12.44
2022-11-25T17:47:16.217Z,12.64
2022-11-25T17:49:43.778Z,12.41
2022-11-25T17:52:10.464Z,12.36
2022-11-25T17:54:37.779Z,12.93
2022-11-25T17:57:05.911Z,12.85
2022-11-25T17:59:33.584Z,13.05
2022-11-25T18:02:01.176Z,12.67
2022-11-25T18:04:34.990Z,12.56
2022-11-25T18:07:02.422Z,12.74
2022-11-25T18:09:29.142Z,12.75
2022-11-25T18:11:58.337Z,12.55
2022-11-25T18:14:33.085Z,12.76
2022-11-25T18:17:07.532Z,12.71
2022-11-25T18:19:34.923Z,12.86
2022-11-25T18:22:11.741Z,12.80
2022-11-25T18:24:42.005Z,12.55
2022-11-25T18:27:32.098Z,12.30
2022-11-25T18:30:02.743Z,12.27
2022-11-25T18:32:29.875Z,12.23
2022-11-25T18:34:56.980Z,12.08
2022-11-25T18:37:24.118Z,12.21
2022-11-25T18:39:51.051Z,12.10
2022-11-25T18:42:26.189Z,12.00
2022-11-25T18:44:55.196Z,11.93
2022-11-25T18:47:22.138Z,12.21
2022-11-25T18:49:54.080Z,12.00
2022-11-25T18:52:23.316Z,12.20
2022-11-25T18:54:50.216Z,12.18
2022-11-25T18:57:17.101Z,12.07
2022-11-25T18:59:44.572Z,12.45
2022-11-25T19:02:17.342Z,12.53
2022-11-25T19:04:45.678Z,12.60
2022-11-25T19:07:12.637Z,12.66
2022-11-25T19:09:39.533Z,12.34
2022-11-25T19:12:13.086Z,12.47
2022-11-25T19:14:42.197Z,12.43
2022-11-25T19:17:19.557Z,12.25
2022-11-25T19:19:47.955Z,11.96
2022-11-25T19:22:18.998Z,11.79
2022-11-25T19:24:48.693Z,11.93
2022-11-25T19:27:21.246Z,12.00
2022-11-25T19:29:48.720Z,11.80
2022-11-25T19:32:26.992Z,11.68
2022-11-25T19:34:57.726Z,11.51
2022-11-25T19:37:24.752Z,11.47
2022-11-25T19:39:52.549Z,11.19
2022-11-25T19:42:19.480Z,11.44
2022-11-25T19:44:46.927Z,11.41
2022-11-25T19:47:24.879Z,11.65
2022-11-25T19:49:55.320Z,11.47
2022-11-25T19:52:35.853Z,11.74
2022-11-25T19:55:13.814Z,11.74
2022-11-25T19:57:40.851Z,11.64
2022-11-25T20:00:09.390Z,11.52
2022-11-25T20:02:36.755Z,11.39
2022-11-25T20:05:04.325Z,11.44
2022-11-25T20:07:32.302Z,11.56
2022-11-25T20:10:25.771Z,11.60
2022-11-25T20:12:54.464Z,11.64
2022-11-25T20:15:30.206Z,11.54
2022-11-25T20:18:05.651Z,11.34
2022-11-25T20:20:40.034Z,11.50
2022-11-25T20:23:26.735Z,11.37
2022-11-25T20:25:54.068Z,11.23
2022-11-25T20:28:23.400Z,11.02
2022-11-25T20:30:50.863Z,11.24
2022-11-25T20:33:22.642Z,11.52
2022-11-25T20:35:53.547Z,11.20
2022-11-25T20:38:25.409Z,11.32
2022-11-25T20:40:55.591Z,11.55
2022-11-25T20:43:31.423Z,11.40
2022-11-25T20:46:00.222Z,11.14
2022-11-25T20:48:28.707Z,11.40
2022-11-25T20:51:07.286Z,11.24
2022-11-25T20:53:35.151Z,10.85
2022-11-25T20:56:02.185Z,10.88
2022-11-25T20:58:30.812Z,10.88
2022-11-25T21:00:58.658Z,10.96
2022-11-25T21:03:26.315Z,11.18
2022-11-25T21:05:55.610Z,10.91
2022-11-25T21:08:28.571Z,10.89
2022-11-25T21:10:56.658Z,11.09
2022-11-25T21:13:25.817Z,11.04
2022-11-25T21:15:54.077Z,10.95
2022-11-25T21:18:21.683Z,10.81
2022-11-25T21:20:49.788Z,10.94
2022-11-25T21:23:22.910Z,10.69
2022-11-25T21:25:50.166Z,10.93
2022-11-25T21:28:19.269Z,11.03
2022-11-25T21:30:47.344Z,11.07
2022-11-25T21:33:17.401Z,11.03
2022-11-25T21:35:45.880Z,10.85
2022-11-25T21:38:21.998Z,10.81
2022-11-25T21:40:52.441Z,10.88
2022-11-25T21:43:32.878Z,10.87
2022-11-25T21:46:04.753Z,10.55
2022-11-25T21:48:32.897Z,10.69
2022-11-25T21:51:00.231Z,10.56
2022-11-25T21:53:27.192Z,10.33
2022-11-25T21:55:54.211Z,10.40
2022-11-25T21:58:25.502Z,10.30
2022-11-25T22:00:57.847Z,10.52
2022-11-25T22:03:26.505Z,10.68
2022-11-25T22:05:53.293Z,10.59
2022-11-25T22:08:20.525Z,10.50
2022-11-25T22:10:51.782Z,10.55
2022-11-25T22:13:21.775Z,10.31
2022-11-25T22:15:52.235Z,10.47
2022-11-25T22:18:28.560Z,10.26
2022-11-25T22:20:55.645Z,10.18
2022-11-25T22:23:22.644Z,9.92
2022-11-25T22:25:50.603Z,10.16
2022-11-25T22:28:20.162Z,10.20
2022-11-25T22:30:53.019Z,10.35
2022-11-25T22:33:20.864Z,10.17
2022-11-25T22:35:47.558Z,10.16
2022-11-25T22:38:16.498Z,10.14
2022-11-25T22:40:45.529Z,10.38
2022-11-25T22:43:17.168Z,10.58
2022-11-25T22:45:44.509Z,10.67
2022-11-25T22:48:15.903Z,10.34
2022-11-25T22:50:43.765Z,10.36
2022-11-25T22:53:13.005Z,10.21
2022-11-25T22:55:39.751Z,10.16
2022-11-25T22:58:07.712Z,9.98
2022-11-25T23:00:41.068Z,10.05
2022-11-25T23:03:15.796Z,10.22
2022-11-25T23:05:42.687Z,10.27
2022-11-25T23:08:12.898Z,10.30
2022-11-25T23:10:40.189Z,10.17
2022-11-25T23:13:07.303Z,10.06
2022-11-25T23:15:35.132Z,9.95
2022-11-25T23:18:03.875Z,9.91
2022-11-25T23:20:36.421Z,9.88
2022-11-25T23:23:29.852Z,9.71
2022-11-25T23:25:57.810Z,9.90
2022-11-25T23:28:25.021Z,9.74
2022-11-25T23:30:56.964Z,9.88
2022-11-25T23:33:43.421Z,9.84
2022-11-25T23:36:33.333Z,10.17
2022-11-25T23:39:05.062Z,10.04
2022-11-25T23:41:34.638Z,10.09
2022-11-25T23:44:16.037Z,9.74
2022-11-25T23:46:43.713Z,9.94
2022-11-25T23:49:22.316Z,10.02
2022-11-25T23:51:49.367Z,9.96
2022-11-25T23:54:17.403Z,10.01
2022-11-25T23:56:44.384Z,10.01
2022-11-25T23:59:14.673Z,10.24
